Terminal Aerodrome Forecast
Issued by NWS

Home | Current Version | Previous Version | Text Only | Print | Product List | Glossary Off
Versions: 1 2 3 4 5 6 7 8 9 10 11 12 13 14 15 16 17 18

000
FTUS43 KICT 251500 AAA
TAFSLN
TAF AMD
KSLN 251516Z 2515/2612 35012KT P6SM SCT080
     FM251900 07010KT P6SM FEW080 SCT150
     FM260200 15008KT P6SM SCT250
     FM260600 09006KT P6SM BKN250=

USA.gov is the U.S. government's official web portal to all federal, state and local government web resources and services.